sensor_id;sensor_type;location;lat;lon;timestamp;P1;durP1;ratioP1;P2;durP2;ratioP2
11447;SDS011;43755;49.736;8.734;2023-06-14T00:00:33;4.20;;;3.80;;
11447;SDS011;43755;49.736;8.734;2023-06-14T00:02:36;5.80;;;3.63;;
11447;SDS011;43755;49.736;8.734;2023-06-14T00:04:38;4.43;;;3.42;;
11447;SDS011;43755;49.736;8.734;2023-06-14T00:06:41;3.83;;;3.42;;
11447;SDS011;43755;49.736;8.734;2023-06-14T00:08:45;5.20;;;3.75;;
11447;SDS011;43755;49.736;8.734;2023-06-14T00:10:46;4.75;;;3.38;;
11447;SDS011;43755;49.736;8.734;2023-06-14T00:12:48;3.80;;;3.50;;
11447;SDS011;43755;49.736;8.734;2023-06-14T00:14:49;6.32;;;3.92;;
11447;SDS011;43755;49.736;8.734;2023-06-14T00:16:51;4.90;;;3.72;;
11447;SDS011;43755;49.736;8.734;2023-06-14T00:18:59;4.03;;;3.72;;
11447;SDS011;43755;49.736;8.734;2023-06-14T00:21:03;4.38;;;3.53;;
11447;SDS011;43755;49.736;8.734;2023-06-14T00:23:04;4.43;;;3.40;;
11447;SDS011;43755;49.736;8.734;2023-06-14T00:25:06;5.07;;;3.30;;
11447;SDS011;43755;49.736;8.734;2023-06-14T00:27:08;5.00;;;3.58;;
11447;SDS011;43755;49.736;8.734;2023-06-14T00:29:10;3.83;;;3.50;;
11447;SDS011;43755;49.736;8.734;2023-06-14T00:31:11;3.70;;;3.40;;
11447;SDS011;43755;49.736;8.734;2023-06-14T00:33:13;4.38;;;3.80;;
11447;SDS011;43755;49.736;8.734;2023-06-14T00:35:16;4.00;;;3.60;;
11447;SDS011;43755;49.736;8.734;2023-06-14T00:37:17;5.40;;;3.60;;
11447;SDS011;43755;49.736;8.734;2023-06-14T00:39:19;6.28;;;3.70;;
11447;SDS011;43755;49.736;8.734;2023-06-14T00:41:20;3.90;;;3.50;;
11447;SDS011;43755;49.736;8.734;2023-06-14T00:43:22;4.63;;;3.47;;
11447;SDS011;43755;49.736;8.734;2023-06-14T00:45:23;4.00;;;3.53;;
11447;SDS011;43755;49.736;8.734;2023-06-14T00:47:24;4.20;;;3.75;;
11447;SDS011;43755;49.736;8.734;2023-06-14T00:49:26;3.75;;;3.10;;
11447;SDS011;43755;49.736;8.734;2023-06-14T00:51:30;4.57;;;3.70;;
11447;SDS011;43755;49.736;8.734;2023-06-14T00:53:32;4.70;;;3.92;;
11447;SDS011;43755;49.736;8.734;2023-06-14T00:55:35;5.68;;;3.47;;
11447;SDS011;43755;49.736;8.734;2023-06-14T00:57:38;4.05;;;3.53;;
11447;SDS011;43755;49.736;8.734;2023-06-14T00:59:41;7.15;;;3.70;;
11447;SDS011;43755;49.736;8.734;2023-06-14T01:01:44;4.05;;;3.50;;
11447;SDS011;43755;49.736;8.734;2023-06-14T01:03:45;3.63;;;3.33;;
11447;SDS011;43755;49.736;8.734;2023-06-14T01:05:47;4.05;;;3.72;;
11447;SDS011;43755;49.736;8.734;2023-06-14T01:07:55;4.10;;;3.72;;
11447;SDS011;43755;49.736;8.734;2023-06-14T01:10:09;3.92;;;3.47;;
11447;SDS011;43755;49.736;8.734;2023-06-14T01:12:21;3.92;;;3.50;;
11447;SDS011;43755;49.736;8.734;2023-06-14T01:14:29;3.88;;;3.58;;
11447;SDS011;43755;49.736;8.734;2023-06-14T01:16:32;4.43;;;3.83;;
11447;SDS011;43755;49.736;8.734;2023-06-14T01:18:36;4.53;;;3.55;;
11447;SDS011;43755;49.736;8.734;2023-06-14T01:20:37;4.43;;;3.70;;
11447;SDS011;43755;49.736;8.734;2023-06-14T01:22:45;4.38;;;3.63;;
11447;SDS011;43755;49.736;8.734;2023-06-14T01:24:51;4.07;;;3.67;;
11447;SDS011;43755;49.736;8.734;2023-06-14T01:26:55;6.80;;;3.78;;
11447;SDS011;43755;49.736;8.734;2023-06-14T01:28:57;3.83;;;3.40;;
11447;SDS011;43755;49.736;8.734;2023-06-14T01:30:59;4.30;;;3.88;;
11447;SDS011;43755;49.736;8.734;2023-06-14T01:33:03;3.88;;;3.58;;
11447;SDS011;43755;49.736;8.734;2023-06-14T01:35:06;4.78;;;3.95;;
11447;SDS011;43755;49.736;8.734;2023-06-14T01:37:08;3.90;;;3.40;;
11447;SDS011;43755;49.736;8.734;2023-06-14T01:39:13;4.63;;;3.58;;
11447;SDS011;43755;49.736;8.734;2023-06-14T01:41:16;4.65;;;3.67;;
11447;SDS011;43755;49.736;8.734;2023-06-14T01:43:19;5.55;;;4.03;;
11447;SDS011;43755;49.736;8.734;2023-06-14T01:45:21;3.78;;;3.47;;
11447;SDS011;43755;49.736;8.734;2023-06-14T01:47:23;5.97;;;3.85;;
11447;SDS011;43755;49.736;8.734;2023-06-14T01:49:25;4.90;;;3.70;;
11447;SDS011;43755;49.736;8.734;2023-06-14T01:51:27;4.00;;;3.70;;
11447;SDS011;43755;49.736;8.734;2023-06-14T01:53:28;4.20;;;3.80;;
11447;SDS011;43755;49.736;8.734;2023-06-14T01:55:31;4.50;;;3.75;;
11447;SDS011;43755;49.736;8.734;2023-06-14T01:57:37;3.90;;;3.60;;
11447;SDS011;43755;49.736;8.734;2023-06-14T01:59:38;5.18;;;3.80;;
11447;SDS011;43755;49.736;8.734;2023-06-14T02:01:39;5.65;;;3.55;;
11447;SDS011;43755;49.736;8.734;2023-06-14T02:03:41;4.00;;;3.70;;
11447;SDS011;43755;49.736;8.734;2023-06-14T02:05:44;3.97;;;3.63;;
11447;SDS011;43755;49.736;8.734;2023-06-14T02:07:46;4.03;;;3.30;;
11447;SDS011;43755;49.736;8.734;2023-06-14T02:09:47;4.55;;;3.95;;
11447;SDS011;43755;49.736;8.734;2023-06-14T02:11:51;4.07;;;3.78;;
11447;SDS011;43755;49.736;8.734;2023-06-14T02:13:52;4.13;;;3.60;;
11447;SDS011;43755;49.736;8.734;2023-06-14T02:15:55;4.82;;;4.32;;
11447;SDS011;43755;49.736;8.734;2023-06-14T02:17:57;4.35;;;3.95;;
11447;SDS011;43755;49.736;8.734;2023-06-14T02:19:58;4.70;;;4.00;;
11447;SDS011;43755;49.736;8.734;2023-06-14T02:22:00;3.70;;;3.40;;
11447;SDS011;43755;49.736;8.734;2023-06-14T02:24:02;6.25;;;3.90;;
11447;SDS011;43755;49.736;8.734;2023-06-14T02:26:03;4.45;;;3.70;;
11447;SDS011;43755;49.736;8.734;2023-06-14T02:28:06;4.32;;;3.92;;
11447;SDS011;43755;49.736;8.734;2023-06-14T02:30:08;4.10;;;3.72;;
11447;SDS011;43755;49.736;8.734;2023-06-14T02:32:10;4.75;;;3.67;;
11447;SDS011;43755;49.736;8.734;2023-06-14T02:34:11;5.20;;;4.13;;
11447;SDS011;43755;49.736;8.734;2023-06-14T02:36:12;3.95;;;3.55;;
11447;SDS011;43755;49.736;8.734;2023-06-14T02:38:14;4.25;;;3.78;;
11447;SDS011;43755;49.736;8.734;2023-06-14T02:40:15;4.00;;;3.50;;
11447;SDS011;43755;49.736;8.734;2023-06-14T02:42:17;4.25;;;3.95;;
11447;SDS011;43755;49.736;8.734;2023-06-14T02:44:23;5.93;;;4.07;;
11447;SDS011;43755;49.736;8.734;2023-06-14T02:46:25;6.93;;;4.10;;
11447;SDS011;43755;49.736;8.734;2023-06-14T02:48:27;4.57;;;3.90;;
11447;SDS011;43755;49.736;8.734;2023-06-14T02:50:28;4.25;;;3.85;;
11447;SDS011;43755;49.736;8.734;2023-06-14T02:52:30;4.38;;;3.90;;
11447;SDS011;43755;49.736;8.734;2023-06-14T02:54:33;4.53;;;4.13;;
11447;SDS011;43755;49.736;8.734;2023-06-14T02:56:34;4.10;;;3.80;;
11447;SDS011;43755;49.736;8.734;2023-06-14T02:58:36;5.47;;;3.92;;
11447;SDS011;43755;49.736;8.734;2023-06-14T03:00:38;4.38;;;3.88;;
11447;SDS011;43755;49.736;8.734;2023-06-14T03:02:40;4.32;;;4.00;;
11447;SDS011;43755;49.736;8.734;2023-06-14T03:04:43;5.00;;;3.67;;
11447;SDS011;43755;49.736;8.734;2023-06-14T03:06:47;4.65;;;3.95;;
11447;SDS011;43755;49.736;8.734;2023-06-14T03:08:50;3.85;;;3.55;;
11447;SDS011;43755;49.736;8.734;2023-06-14T03:10:54;4.70;;;4.30;;
11447;SDS011;43755;49.736;8.734;2023-06-14T03:12:57;6.00;;;4.47;;
11447;SDS011;43755;49.736;8.734;2023-06-14T03:14:58;6.60;;;4.32;;
11447;SDS011;43755;49.736;8.734;2023-06-14T03:17:05;4.47;;;4.07;;
11447;SDS011;43755;49.736;8.734;2023-06-14T03:19:08;4.78;;;4.20;;
11447;SDS011;43755;49.736;8.734;2023-06-14T03:21:09;6.55;;;3.75;;
11447;SDS011;43755;49.736;8.734;2023-06-14T03:23:11;5.57;;;4.28;;
11447;SDS011;43755;49.736;8.734;2023-06-14T03:25:13;9.25;;;4.15;;
11447;SDS011;43755;49.736;8.734;2023-06-14T03:27:15;4.65;;;4.13;;
11447;SDS011;43755;49.736;8.734;2023-06-14T03:29:16;4.20;;;3.78;;
11447;SDS011;43755;49.736;8.734;2023-06-14T03:31:17;5.45;;;4.00;;
11447;SDS011;43755;49.736;8.734;2023-06-14T03:33:21;6.78;;;4.18;;
11447;SDS011;43755;49.736;8.734;2023-06-14T03:35:22;4.47;;;3.97;;
11447;SDS011;43755;49.736;8.734;2023-06-14T03:37:24;4.93;;;4.53;;
11447;SDS011;43755;49.736;8.734;2023-06-14T03:39:26;4.82;;;3.75;;
11447;SDS011;43755;49.736;8.734;2023-06-14T03:41:27;4.90;;;4.28;;
11447;SDS011;43755;49.736;8.734;2023-06-14T03:43:28;4.50;;;3.90;;
11447;SDS011;43755;49.736;8.734;2023-06-14T03:45:30;5.10;;;4.13;;
11447;SDS011;43755;49.736;8.734;2023-06-14T03:47:32;4.38;;;4.07;;
11447;SDS011;43755;49.736;8.734;2023-06-14T03:49:35;4.15;;;3.85;;
11447;SDS011;43755;49.736;8.734;2023-06-14T03:51:36;6.30;;;4.00;;
11447;SDS011;43755;49.736;8.734;2023-06-14T03:53:38;4.05;;;3.75;;
11447;SDS011;43755;49.736;8.734;2023-06-14T03:55:39;4.63;;;4.22;;
11447;SDS011;43755;49.736;8.734;2023-06-14T03:57:41;4.50;;;4.10;;
11447;SDS011;43755;49.736;8.734;2023-06-14T03:59:42;5.00;;;4.43;;
11447;SDS011;43755;49.736;8.734;2023-06-14T04:01:44;5.43;;;4.57;;
11447;SDS011;43755;49.736;8.734;2023-06-14T04:03:46;4.95;;;4.30;;
11447;SDS011;43755;49.736;8.734;2023-06-14T04:05:50;4.50;;;4.10;;
11447;SDS011;43755;49.736;8.734;2023-06-14T04:07:56;6.28;;;4.10;;
11447;SDS011;43755;49.736;8.734;2023-06-14T04:09:58;4.75;;;4.10;;
11447;SDS011;43755;49.736;8.734;2023-06-14T04:12:00;4.35;;;3.92;;
11447;SDS011;43755;49.736;8.734;2023-06-14T04:14:01;4.63;;;4.22;;
11447;SDS011;43755;49.736;8.734;2023-06-14T04:16:03;6.50;;;4.00;;
11447;SDS011;43755;49.736;8.734;2023-06-14T04:18:05;6.53;;;4.63;;
11447;SDS011;43755;49.736;8.734;2023-06-14T04:20:07;7.25;;;4.20;;
11447;SDS011;43755;49.736;8.734;2023-06-14T04:22:11;4.75;;;4.30;;
11447;SDS011;43755;49.736;8.734;2023-06-14T04:24:13;6.72;;;4.30;;
11447;SDS011;43755;49.736;8.734;2023-06-14T04:26:14;4.43;;;4.03;;
11447;SDS011;43755;49.736;8.734;2023-06-14T04:28:16;5.38;;;4.38;;
11447;SDS011;43755;49.736;8.734;2023-06-14T04:30:18;8.52;;;4.28;;
11447;SDS011;43755;49.736;8.734;2023-06-14T04:32:21;4.97;;;4.30;;
11447;SDS011;43755;49.736;8.734;2023-06-14T04:34:25;5.00;;;4.50;;
11447;SDS011;43755;49.736;8.734;2023-06-14T04:36:29;7.25;;;4.60;;
11447;SDS011;43755;49.736;8.734;2023-06-14T04:38:33;4.72;;;3.95;;
11447;SDS011;43755;49.736;8.734;2023-06-14T04:40:34;5.18;;;4.43;;
11447;SDS011;43755;49.736;8.734;2023-06-14T04:42:42;5.57;;;4.47;;
11447;SDS011;43755;49.736;8.734;2023-06-14T04:44:46;6.78;;;4.55;;
11447;SDS011;43755;49.736;8.734;2023-06-14T04:46:48;5.38;;;4.25;;
11447;SDS011;43755;49.736;8.734;2023-06-14T04:48:50;4.95;;;4.22;;
11447;SDS011;43755;49.736;8.734;2023-06-14T04:50:51;5.40;;;4.65;;
11447;SDS011;43755;49.736;8.734;2023-06-14T04:52:53;4.70;;;4.30;;
11447;SDS011;43755;49.736;8.734;2023-06-14T04:54:56;6.85;;;4.40;;
11447;SDS011;43755;49.736;8.734;2023-06-14T04:56:57;5.20;;;4.70;;
11447;SDS011;43755;49.736;8.734;2023-06-14T04:58:59;6.80;;;4.40;;
11447;SDS011;43755;49.736;8.734;2023-06-14T05:01:00;4.93;;;4.43;;
11447;SDS011;43755;49.736;8.734;2023-06-14T05:03:03;5.57;;;4.63;;
11447;SDS011;43755;49.736;8.734;2023-06-14T05:05:06;4.47;;;4.03;;
11447;SDS011;43755;49.736;8.734;2023-06-14T05:07:09;5.90;;;4.07;;
11447;SDS011;43755;49.736;8.734;2023-06-14T05:09:10;5.35;;;3.97;;
11447;SDS011;43755;49.736;8.734;2023-06-14T05:11:13;5.10;;;4.53;;
11447;SDS011;43755;49.736;8.734;2023-06-14T05:13:14;9.37;;;4.70;;
11447;SDS011;43755;49.736;8.734;2023-06-14T05:15:16;5.27;;;4.33;;
11447;SDS011;43755;49.736;8.734;2023-06-14T05:17:17;6.93;;;4.00;;
11447;SDS011;43755;49.736;8.734;2023-06-14T05:19:20;7.53;;;4.10;;
11447;SDS011;43755;49.736;8.734;2023-06-14T05:21:22;4.70;;;4.20;;
11447;SDS011;43755;49.736;8.734;2023-06-14T05:23:23;4.63;;;4.22;;
11447;SDS011;43755;49.736;8.734;2023-06-14T05:25:25;5.47;;;4.10;;
11447;SDS011;43755;49.736;8.734;2023-06-14T05:27:29;4.82;;;4.22;;
11447;SDS011;43755;49.736;8.734;2023-06-14T05:29:30;5.35;;;4.30;;
11447;SDS011;43755;49.736;8.734;2023-06-14T05:31:32;4.80;;;4.30;;
11447;SDS011;43755;49.736;8.734;2023-06-14T05:33:33;7.53;;;4.38;;
11447;SDS011;43755;49.736;8.734;2023-06-14T05:35:34;4.82;;;4.32;;
11447;SDS011;43755;49.736;8.734;2023-06-14T05:37:37;4.60;;;4.20;;
11447;SDS011;43755;49.736;8.734;2023-06-14T05:39:39;6.38;;;4.43;;
11447;SDS011;43755;49.736;8.734;2023-06-14T05:41:40;5.18;;;4.10;;
11447;SDS011;43755;49.736;8.734;2023-06-14T05:43:43;7.43;;;4.55;;
11447;SDS011;43755;49.736;8.734;2023-06-14T05:45:45;4.72;;;4.32;;
11447;SDS011;43755;49.736;8.734;2023-06-14T05:47:46;8.70;;;4.88;;
11447;SDS011;43755;49.736;8.734;2023-06-14T05:49:47;9.15;;;4.43;;
11447;SDS011;43755;49.736;8.734;2023-06-14T05:51:49;6.00;;;4.35;;
11447;SDS011;43755;49.736;8.734;2023-06-14T05:53:51;5.68;;;4.65;;
11447;SDS011;43755;49.736;8.734;2023-06-14T05:55:52;7.10;;;4.32;;
11447;SDS011;43755;49.736;8.734;2023-06-14T05:57:55;5.63;;;4.32;;
11447;SDS011;43755;49.736;8.734;2023-06-14T05:59:58;5.20;;;4.70;;
11447;SDS011;43755;49.736;8.734;2023-06-14T06:01:59;5.00;;;4.60;;
11447;SDS011;43755;49.736;8.734;2023-06-14T06:04:00;5.07;;;4.35;;
11447;SDS011;43755;49.736;8.734;2023-06-14T06:06:02;4.68;;;4.28;;
11447;SDS011;43755;49.736;8.734;2023-06-14T06:08:03;4.97;;;4.57;;
11447;SDS011;43755;49.736;8.734;2023-06-14T06:10:06;6.63;;;4.43;;
11447;SDS011;43755;49.736;8.734;2023-06-14T06:12:08;4.70;;;4.22;;
11447;SDS011;43755;49.736;8.734;2023-06-14T06:14:10;4.72;;;4.03;;
11447;SDS011;43755;49.736;8.734;2023-06-14T06:16:13;4.28;;;3.88;;
11447;SDS011;43755;49.736;8.734;2023-06-14T06:18:14;5.15;;;4.30;;
11447;SDS011;43755;49.736;8.734;2023-06-14T06:20:15;7.70;;;4.13;;
11447;SDS011;43755;49.736;8.734;2023-06-14T06:22:17;4.70;;;4.30;;
11447;SDS011;43755;49.736;8.734;2023-06-14T06:24:18;6.80;;;4.93;;
11447;SDS011;43755;49.736;8.734;2023-06-14T06:26:21;4.40;;;4.00;;
11447;SDS011;43755;49.736;8.734;2023-06-14T06:28:22;6.90;;;4.47;;
11447;SDS011;43755;49.736;8.734;2023-06-14T06:30:24;8.07;;;4.25;;
11447;SDS011;43755;49.736;8.734;2023-06-14T06:32:27;5.78;;;4.22;;
11447;SDS011;43755;49.736;8.734;2023-06-14T06:34:28;6.65;;;4.40;;
11447;SDS011;43755;49.736;8.734;2023-06-14T06:36:30;8.68;;;4.50;;
11447;SDS011;43755;49.736;8.734;2023-06-14T06:38:31;5.40;;;4.18;;
11447;SDS011;43755;49.736;8.734;2023-06-14T06:40:33;5.45;;;3.90;;
11447;SDS011;43755;49.736;8.734;2023-06-14T06:42:34;5.68;;;4.13;;
11447;SDS011;43755;49.736;8.734;2023-06-14T06:44:36;8.10;;;4.00;;
11447;SDS011;43755;49.736;8.734;2023-06-14T06:46:38;4.88;;;4.20;;
11447;SDS011;43755;49.736;8.734;2023-06-14T06:48:42;6.35;;;4.13;;
11447;SDS011;43755;49.736;8.734;2023-06-14T06:50:43;6.50;;;4.30;;
11447;SDS011;43755;49.736;8.734;2023-06-14T06:52:45;5.85;;;4.32;;
11447;SDS011;43755;49.736;8.734;2023-06-14T06:54:46;8.02;;;4.10;;
11447;SDS011;43755;49.736;8.734;2023-06-14T06:56:49;8.80;;;4.32;;
11447;SDS011;43755;49.736;8.734;2023-06-14T06:58:50;5.90;;;3.95;;
11447;SDS011;43755;49.736;8.734;2023-06-14T07:00:52;6.32;;;4.00;;
11447;SDS011;43755;49.736;8.734;2023-06-14T07:02:53;5.15;;;3.85;;
11447;SDS011;43755;49.736;8.734;2023-06-14T07:04:56;4.63;;;3.85;;
11447;SDS011;43755;49.736;8.734;2023-06-14T07:06:57;6.55;;;4.30;;
11447;SDS011;43755;49.736;8.734;2023-06-14T07:08:59;8.35;;;4.20;;
11447;SDS011;43755;49.736;8.734;2023-06-14T07:11:01;6.82;;;4.40;;
11447;SDS011;43755;49.736;8.734;2023-06-14T07:13:03;6.38;;;3.90;;
11447;SDS011;43755;49.736;8.734;2023-06-14T07:15:06;6.18;;;4.45;;
11447;SDS011;43755;49.736;8.734;2023-06-14T07:17:08;4.47;;;4.07;;
11447;SDS011;43755;49.736;8.734;2023-06-14T07:19:10;4.75;;;4.32;;
11447;SDS011;43755;49.736;8.734;2023-06-14T07:21:13;6.90;;;4.20;;
11447;SDS011;43755;49.736;8.734;2023-06-14T07:23:14;5.38;;;4.10;;
11447;SDS011;43755;49.736;8.734;2023-06-14T07:25:16;4.75;;;4.20;;
11447;SDS011;43755;49.736;8.734;2023-06-14T07:27:20;7.78;;;4.00;;
11447;SDS011;43755;49.736;8.734;2023-06-14T07:29:21;5.53;;;3.70;;
11447;SDS011;43755;49.736;8.734;2023-06-14T07:31:22;6.00;;;4.10;;
11447;SDS011;43755;49.736;8.734;2023-06-14T07:33:24;5.10;;;3.80;;
11447;SDS011;43755;49.736;8.734;2023-06-14T07:35:25;4.53;;;3.50;;
11447;SDS011;43755;49.736;8.734;2023-06-14T07:37:28;6.50;;;3.80;;
11447;SDS011;43755;49.736;8.734;2023-06-14T07:39:30;6.00;;;3.97;;
11447;SDS011;43755;49.736;8.734;2023-06-14T07:41:32;8.00;;;3.80;;
11447;SDS011;43755;49.736;8.734;2023-06-14T07:43:33;6.63;;;3.97;;
11447;SDS011;43755;49.736;8.734;2023-06-14T07:45:35;6.50;;;3.97;;
11447;SDS011;43755;49.736;8.734;2023-06-14T07:47:37;6.57;;;3.70;;
11447;SDS011;43755;49.736;8.734;2023-06-14T07:49:38;7.60;;;3.87;;
11447;SDS011;43755;49.736;8.734;2023-06-14T07:51:39;7.13;;;3.87;;
11447;SDS011;43755;49.736;8.734;2023-06-14T07:53:42;4.07;;;3.40;;
11447;SDS011;43755;49.736;8.734;2023-06-14T07:55:44;4.47;;;3.37;;
11447;SDS011;43755;49.736;8.734;2023-06-14T07:57:47;7.43;;;3.53;;
11447;SDS011;43755;49.736;8.734;2023-06-14T07:59:49;4.73;;;3.77;;
11447;SDS011;43755;49.736;8.734;2023-06-14T08:01:51;4.33;;;3.30;;
11447;SDS011;43755;49.736;8.734;2023-06-14T08:03:52;4.47;;;3.40;;
11447;SDS011;43755;49.736;8.734;2023-06-14T08:05:53;4.93;;;3.60;;
11447;SDS011;43755;49.736;8.734;2023-06-14T08:07:55;3.77;;;3.30;;
11447;SDS011;43755;49.736;8.734;2023-06-14T08:09:58;4.13;;;3.73;;
11447;SDS011;43755;49.736;8.734;2023-06-14T08:11:59;3.80;;;3.47;;
11447;SDS011;43755;49.736;8.734;2023-06-14T08:14:00;4.43;;;3.60;;
11447;SDS011;43755;49.736;8.734;2023-06-14T08:16:02;4.63;;;3.63;;
11447;SDS011;43755;49.736;8.734;2023-06-14T08:18:05;4.93;;;3.87;;
11447;SDS011;43755;49.736;8.734;2023-06-14T08:20:06;6.37;;;3.70;;
11447;SDS011;43755;49.736;8.734;2023-06-14T08:22:08;4.07;;;3.60;;
11447;SDS011;43755;49.736;8.734;2023-06-14T08:24:11;4.00;;;3.47;;
11447;SDS011;43755;49.736;8.734;2023-06-14T08:26:14;4.43;;;3.23;;
11447;SDS011;43755;49.736;8.734;2023-06-14T08:28:15;7.23;;;3.63;;
11447;SDS011;43755;49.736;8.734;2023-06-14T08:30:17;3.83;;;3.40;;
11447;SDS011;43755;49.736;8.734;2023-06-14T08:32:18;5.67;;;3.50;;
11447;SDS011;43755;49.736;8.734;2023-06-14T08:34:20;5.23;;;3.83;;
11447;SDS011;43755;49.736;8.734;2023-06-14T08:36:23;4.03;;;3.43;;
11447;SDS011;43755;49.736;8.734;2023-06-14T08:38:25;5.47;;;3.67;;
11447;SDS011;43755;49.736;8.734;2023-06-14T08:40:26;3.60;;;3.30;;
11447;SDS011;43755;49.736;8.734;2023-06-14T08:42:32;6.77;;;3.53;;
11447;SDS011;43755;49.736;8.734;2023-06-14T08:44:34;4.07;;;3.50;;
11447;SDS011;43755;49.736;8.734;2023-06-14T08:46:35;3.87;;;3.50;;
11447;SDS011;43755;49.736;8.734;2023-06-14T08:48:38;6.03;;;3.37;;
11447;SDS011;43755;49.736;8.734;2023-06-14T08:50:40;4.80;;;3.30;;
11447;SDS011;43755;49.736;8.734;2023-06-14T08:52:42;6.17;;;3.20;;
11447;SDS011;43755;49.736;8.734;2023-06-14T08:54:49;3.20;;;2.90;;
11447;SDS011;43755;49.736;8.734;2023-06-14T08:56:50;4.00;;;3.17;;
11447;SDS011;43755;49.736;8.734;2023-06-14T08:58:55;3.80;;;2.80;;
11447;SDS011;43755;49.736;8.734;2023-06-14T09:00:57;4.17;;;2.83;;
11447;SDS011;43755;49.736;8.734;2023-06-14T09:02:59;3.33;;;3.03;;
11447;SDS011;43755;49.736;8.734;2023-06-14T09:05:01;4.83;;;3.23;;
11447;SDS011;43755;49.736;8.734;2023-06-14T09:07:03;4.27;;;2.97;;
11447;SDS011;43755;49.736;8.734;2023-06-14T09:09:06;3.77;;;3.33;;
11447;SDS011;43755;49.736;8.734;2023-06-14T09:11:08;4.33;;;3.07;;
11447;SDS011;43755;49.736;8.734;2023-06-14T09:13:09;5.93;;;2.97;;
11447;SDS011;43755;49.736;8.734;2023-06-14T09:15:12;4.53;;;3.20;;
11447;SDS011;43755;49.736;8.734;2023-06-14T09:17:14;3.40;;;3.10;;
11447;SDS011;43755;49.736;8.734;2023-06-14T09:19:20;3.70;;;2.90;;
11447;SDS011;43755;49.736;8.734;2023-06-14T09:21:23;2.97;;;2.53;;
11447;SDS011;43755;49.736;8.734;2023-06-14T09:23:24;3.77;;;2.70;;
11447;SDS011;43755;49.736;8.734;2023-06-14T09:25:26;2.73;;;2.43;;
11447;SDS011;43755;49.736;8.734;2023-06-14T09:27:27;3.97;;;2.90;;
11447;SDS011;43755;49.736;8.734;2023-06-14T09:29:29;2.57;;;2.37;;
11447;SDS011;43755;49.736;8.734;2023-06-14T09:31:34;2.73;;;2.53;;
11447;SDS011;43755;49.736;8.734;2023-06-14T09:33:36;4.30;;;2.60;;
11447;SDS011;43755;49.736;8.734;2023-06-14T09:35:38;3.00;;;2.70;;
11447;SDS011;43755;49.736;8.734;2023-06-14T09:37:39;3.43;;;2.50;;
11447;SDS011;43755;49.736;8.734;2023-06-14T09:39:48;3.17;;;2.90;;
11447;SDS011;43755;49.736;8.734;2023-06-14T09:41:50;4.40;;;2.80;;
11447;SDS011;43755;49.736;8.734;2023-06-14T09:43:52;2.93;;;2.63;;
11447;SDS011;43755;49.736;8.734;2023-06-14T09:45:57;3.40;;;2.87;;
11447;SDS011;43755;49.736;8.734;2023-06-14T09:48:00;3.40;;;2.60;;
11447;SDS011;43755;49.736;8.734;2023-06-14T09:50:02;3.30;;;3.00;;
11447;SDS011;43755;49.736;8.734;2023-06-14T09:52:04;6.17;;;2.43;;
11447;SDS011;43755;49.736;8.734;2023-06-14T09:54:06;3.10;;;2.73;;
11447;SDS011;43755;49.736;8.734;2023-06-14T09:56:09;4.23;;;2.90;;
11447;SDS011;43755;49.736;8.734;2023-06-14T09:58:12;3.33;;;2.93;;
11447;SDS011;43755;49.736;8.734;2023-06-14T10:00:17;5.00;;;2.90;;
11447;SDS011;43755;49.736;8.734;2023-06-14T10:02:21;7.93;;;3.27;;
11447;SDS011;43755;49.736;8.734;2023-06-14T10:04:27;5.07;;;3.57;;
11447;SDS011;43755;49.736;8.734;2023-06-14T10:06:31;3.40;;;3.10;;
11447;SDS011;43755;49.736;8.734;2023-06-14T10:08:37;4.60;;;3.33;;
11447;SDS011;43755;49.736;8.734;2023-06-14T10:10:40;4.33;;;3.10;;
11447;SDS011;43755;49.736;8.734;2023-06-14T10:12:43;3.80;;;2.73;;
11447;SDS011;43755;49.736;8.734;2023-06-14T10:14:44;3.50;;;2.90;;
11447;SDS011;43755;49.736;8.734;2023-06-14T10:16:47;5.30;;;3.10;;
11447;SDS011;43755;49.736;8.734;2023-06-14T10:18:59;6.83;;;3.00;;
11447;SDS011;43755;49.736;8.734;2023-06-14T10:21:08;4.03;;;2.83;;
11447;SDS011;43755;49.736;8.734;2023-06-14T10:23:18;4.40;;;2.97;;
11447;SDS011;43755;49.736;8.734;2023-06-14T10:25:27;5.07;;;2.97;;
11447;SDS011;43755;49.736;8.734;2023-06-14T10:27:29;3.63;;;3.20;;
11447;SDS011;43755;49.736;8.734;2023-06-14T10:29:30;3.40;;;3.10;;
11447;SDS011;43755;49.736;8.734;2023-06-14T10:31:42;4.17;;;2.83;;
11447;SDS011;43755;49.736;8.734;2023-06-14T10:33:48;5.30;;;3.20;;
11447;SDS011;43755;49.736;8.734;2023-06-14T10:35:54;5.03;;;3.03;;
11447;SDS011;43755;49.736;8.734;2023-06-14T10:38:11;4.13;;;3.03;;
11447;SDS011;43755;49.736;8.734;2023-06-14T10:40:18;4.23;;;3.03;;
11447;SDS011;43755;49.736;8.734;2023-06-14T10:42:31;3.30;;;3.00;;
11447;SDS011;43755;49.736;8.734;2023-06-14T10:44:33;4.13;;;2.73;;
11447;SDS011;43755;49.736;8.734;2023-06-14T10:46:45;3.10;;;2.90;;
11447;SDS011;43755;49.736;8.734;2023-06-14T10:48:47;7.20;;;3.20;;
11447;SDS011;43755;49.736;8.734;2023-06-14T10:50:48;4.40;;;3.00;;
11447;SDS011;43755;49.736;8.734;2023-06-14T10:52:51;5.23;;;2.83;;
11447;SDS011;43755;49.736;8.734;2023-06-14T10:55:00;3.07;;;2.80;;
11447;SDS011;43755;49.736;8.734;2023-06-14T10:57:11;6.10;;;2.87;;
11447;SDS011;43755;49.736;8.734;2023-06-14T10:59:12;3.13;;;2.83;;
11447;SDS011;43755;49.736;8.734;2023-06-14T11:01:14;4.93;;;2.90;;
11447;SDS011;43755;49.736;8.734;2023-06-14T11:05:48;3.67;;;2.67;;
11447;SDS011;43755;49.736;8.734;2023-06-14T11:08:06;4.07;;;2.90;;
11447;SDS011;43755;49.736;8.734;2023-06-14T11:10:22;7.20;;;3.17;;
11447;SDS011;43755;49.736;8.734;2023-06-14T11:12:34;5.23;;;2.77;;
11447;SDS011;43755;49.736;8.734;2023-06-14T11:14:38;3.53;;;2.90;;
11447;SDS011;43755;49.736;8.734;2023-06-14T11:16:39;2.67;;;2.47;;
11447;SDS011;43755;49.736;8.734;2023-06-14T11:18:41;3.07;;;2.80;;
11447;SDS011;43755;49.736;8.734;2023-06-14T11:20:45;3.30;;;3.00;;
11447;SDS011;43755;49.736;8.734;2023-06-14T11:22:47;2.90;;;2.70;;
11447;SDS011;43755;49.736;8.734;2023-06-14T11:24:50;2.90;;;2.70;;
11447;SDS011;43755;49.736;8.734;2023-06-14T11:26:51;2.80;;;2.53;;
11447;SDS011;43755;49.736;8.734;2023-06-14T11:28:54;3.20;;;2.90;;
11447;SDS011;43755;49.736;8.734;2023-06-14T11:30:59;3.00;;;2.80;;
11447;SDS011;43755;49.736;8.734;2023-06-14T11:33:01;3.67;;;2.73;;
11447;SDS011;43755;49.736;8.734;2023-06-14T11:35:02;4.43;;;2.97;;
11447;SDS011;43755;49.736;8.734;2023-06-14T11:37:05;3.13;;;2.70;;
11447;SDS011;43755;49.736;8.734;2023-06-14T11:39:07;4.20;;;2.80;;
11447;SDS011;43755;49.736;8.734;2023-06-14T11:41:09;3.20;;;2.93;;
11447;SDS011;43755;49.736;8.734;2023-06-14T11:43:11;7.00;;;2.90;;
11447;SDS011;43755;49.736;8.734;2023-06-14T11:45:13;4.03;;;2.70;;
11447;SDS011;43755;49.736;8.734;2023-06-14T11:47:14;2.93;;;2.73;;
11447;SDS011;43755;49.736;8.734;2023-06-14T11:49:16;4.23;;;2.60;;
11447;SDS011;43755;49.736;8.734;2023-06-14T11:51:18;3.60;;;2.70;;
11447;SDS011;43755;49.736;8.734;2023-06-14T11:53:20;3.87;;;2.77;;
11447;SDS011;43755;49.736;8.734;2023-06-14T11:55:21;3.63;;;2.70;;
11447;SDS011;43755;49.736;8.734;2023-06-14T11:57:24;2.83;;;2.63;;
11447;SDS011;43755;49.736;8.734;2023-06-14T11:59:26;3.23;;;2.67;;
11447;SDS011;43755;49.736;8.734;2023-06-14T12:01:29;2.97;;;2.30;;
11447;SDS011;43755;49.736;8.734;2023-06-14T12:03:31;2.70;;;2.50;;
11447;SDS011;43755;49.736;8.734;2023-06-14T12:05:33;2.73;;;2.53;;
11447;SDS011;43755;49.736;8.734;2023-06-14T12:07:35;2.53;;;2.33;;
11447;SDS011;43755;49.736;8.734;2023-06-14T12:09:37;3.60;;;2.33;;
11447;SDS011;43755;49.736;8.734;2023-06-14T12:11:39;2.67;;;2.43;;
11447;SDS011;43755;49.736;8.734;2023-06-14T12:13:42;4.30;;;2.60;;
11447;SDS011;43755;49.736;8.734;2023-06-14T12:15:44;3.13;;;2.73;;
11447;SDS011;43755;49.736;8.734;2023-06-14T12:17:46;5.07;;;2.73;;
11447;SDS011;43755;49.736;8.734;2023-06-14T12:19:48;3.53;;;2.37;;
11447;SDS011;43755;49.736;8.734;2023-06-14T12:21:51;3.13;;;2.40;;